createdAt,value
2023-05-12T00:01:46.848Z,99661.84
2023-05-12T00:04:14.150Z,99660.72
2023-05-12T00:06:41.404Z,99661.50
2023-05-12T00:09:08.475Z,99668.97
2023-05-12T00:11:37.967Z,99665.72
2023-05-12T00:14:05.118Z,99667.03
2023-05-12T00:16:32.523Z,99668.38
2023-05-12T00:18:59.631Z,99660.75
2023-05-12T00:21:26.752Z,99660.91
2023-05-12T00:23:53.867Z,99658.72
2023-05-12T00:26:21.144Z,99665.75
2023-05-12T00:28:48.848Z,99658.16
2023-05-12T00:31:16.067Z,99654.88
2023-05-12T00:33:43.253Z,99655.91
2023-05-12T00:36:10.244Z,99648.03
2023-05-12T00:38:37.562Z,99654.88
2023-05-12T00:41:04.822Z,99659.44
2023-05-12T00:43:32.132Z,99652.63
2023-05-12T00:46:00.594Z,99648.28
2023-05-12T00:48:27.954Z,99647.97
2023-05-12T00:50:56.855Z,99651.25
2023-05-12T00:53:25.775Z,99652.56
2023-05-12T00:55:55.757Z,99647.66
2023-05-12T00:58:23.043Z,99650.63
2023-05-12T01:00:50.538Z,99647.34
2023-05-12T01:03:19.187Z,99645.72
2023-05-12T01:05:51.234Z,99643.25
2023-05-12T01:08:20.365Z,99646.22
2023-05-12T01:10:48.730Z,99652.97
2023-05-12T01:13:17.723Z,99645.09
2023-05-12T01:15:48.106Z,99639.94
2023-05-12T01:18:16.901Z,99647.50
2023-05-12T01:20:44.805Z,99643.97
2023-05-12T01:23:14.163Z,99642.06
2023-05-12T01:25:42.130Z,99634.75
2023-05-12T01:28:10.542Z,99648.06
2023-05-12T01:30:43.330Z,99642.63
2023-05-12T01:33:12.650Z,99641.25
2023-05-12T01:35:39.944Z,99647.22
2023-05-12T01:38:06.988Z,99648.31
2023-05-12T01:40:39.242Z,99641.25
2023-05-12T01:43:06.482Z,99646.91
2023-05-12T01:45:33.796Z,99641.16
2023-05-12T01:48:01.301Z,99642.31
2023-05-12T01:50:28.834Z,99644.22
2023-05-12T01:52:56.241Z,99643.38
2023-05-12T01:55:23.390Z,99641.25
2023-05-12T01:57:54.170Z,99641.25
2023-05-12T02:00:21.870Z,99639.94
2023-05-12T02:02:51.828Z,99652.16
2023-05-12T02:05:19.089Z,99636.97
2023-05-12T02:07:49.507Z,99645.72
2023-05-12T02:10:18.378Z,99646.28
2023-05-12T02:12:49.146Z,99645.78
2023-05-12T02:15:16.726Z,99642.56
2023-05-12T02:17:46.858Z,99643.94
2023-05-12T02:20:16.253Z,99658.16
2023-05-12T02:22:43.721Z,99653.03
2023-05-12T02:25:11.171Z,99640.31
2023-05-12T02:27:38.327Z,99655.88
2023-05-12T02:30:06.897Z,99652.91
2023-05-12T02:32:35.355Z,99645.34
2023-05-12T02:35:02.601Z,99647.84
2023-05-12T02:37:31.838Z,99652.53
2023-05-12T02:39:59.316Z,99648.50
2023-05-12T02:42:28.992Z,99650.97
2023-05-12T02:44:56.447Z,99655.34
2023-05-12T02:47:23.809Z,99650.22
2023-05-12T02:49:51.304Z,99651.09
2023-05-12T02:52:18.535Z,99650.06
2023-05-12T02:54:45.628Z,99661.00
2023-05-12T02:57:12.782Z,99652.63
2023-05-12T02:59:39.920Z,99665.44
2023-05-12T03:02:07.872Z,99663.63
2023-05-12T03:04:35.346Z,99666.97
2023-05-12T03:07:03.044Z,99667.03
2023-05-12T03:09:30.443Z,99664.06
2023-05-12T03:11:57.401Z,99651.13
2023-05-12T03:14:26.349Z,99656.63
2023-05-12T03:16:53.538Z,99660.44
2023-05-12T03:19:20.776Z,99657.22
2023-05-12T03:21:47.862Z,99660.28
2023-05-12T03:24:15.132Z,99656.25
2023-05-12T03:26:42.579Z,99650.59
2023-05-12T03:29:09.677Z,99661.78
2023-05-12T03:31:37.112Z,99649.06
2023-05-12T03:34:04.937Z,99651.84
2023-05-12T03:36:32.102Z,99652.41
2023-05-12T03:38:59.221Z,99657.59
2023-05-12T03:41:26.298Z,99657.59
2023-05-12T03:43:53.307Z,99659.25
2023-05-12T03:46:21.301Z,99651.69
2023-05-12T03:48:48.385Z,99647.38
2023-05-12T03:51:15.548Z,99653.38
2023-05-12T03:53:45.498Z,99657.75
2023-05-12T03:56:15.792Z,99665.41
2023-05-12T03:58:43.927Z,99673.84
2023-05-12T04:01:11.038Z,99665.13
2023-05-12T04:03:38.122Z,99659.44
2023-05-12T04:06:05.389Z,99660.25
2023-05-12T04:08:32.505Z,99655.91
2023-05-12T04:11:01.876Z,99656.22
2023-05-12T04:13:32.012Z,99644.50
2023-05-12T04:15:59.388Z,99650.22
2023-05-12T04:18:28.065Z,99645.06
2023-05-12T04:20:56.022Z,99649.97
2023-05-12T04:23:23.503Z,99645.91
2023-05-12T04:25:50.511Z,99642.34
2023-05-12T04:28:17.996Z,99643.19
2023-05-12T04:30:45.889Z,99645.13
2023-05-12T04:33:12.978Z,99642.38
2023-05-12T04:35:40.878Z,99637.97
2023-05-12T04:38:10.031Z,99639.09
2023-05-12T04:40:37.995Z,99641.22
2023-05-12T04:43:05.164Z,99637.41
2023-05-12T04:45:32.685Z,99639.81
2023-05-12T04:48:00.176Z,99642.00
2023-05-12T04:50:27.341Z,99642.25
2023-05-12T04:52:54.507Z,99641.97
2023-05-12T04:55:22.033Z,99641.94
2023-05-12T04:57:49.971Z,99648.19
2023-05-12T05:00:17.142Z,99652.81
2023-05-12T05:02:45.640Z,99648.72
2023-05-12T05:05:12.905Z,99653.34
2023-05-12T05:07:40.608Z,99644.63
2023-05-12T05:10:08.546Z,99643.78
2023-05-12T05:12:35.954Z,99643.19
2023-05-12T05:15:03.154Z,99638.50
2023-05-12T05:17:33.947Z,99646.41
2023-05-12T05:20:01.252Z,99639.84
2023-05-12T05:22:33.858Z,99646.59
2023-05-12T05:25:01.261Z,99644.06
2023-05-12T05:27:32.217Z,99648.38
2023-05-12T05:29:59.460Z,99642.00
2023-05-12T05:32:27.022Z,99648.50
2023-05-12T05:34:54.168Z,99649.00
2023-05-12T05:37:21.377Z,99641.34
2023-05-12T05:39:48.570Z,99640.66
2023-05-12T05:42:15.921Z,99649.91
2023-05-12T05:44:43.706Z,99639.44
2023-05-12T05:47:11.457Z,99638.00
2023-05-12T05:49:38.781Z,99641.72
2023-05-12T05:52:06.913Z,99640.63
2023-05-12T05:54:33.970Z,99637.31
2023-05-12T05:57:02.322Z,99641.63
2023-05-12T05:59:30.418Z,99640.44
2023-05-12T06:01:57.735Z,99635.66
2023-05-12T06:04:25.080Z,99647.56
2023-05-12T06:06:52.141Z,99640.31
2023-05-12T06:09:21.224Z,99635.84
2023-05-12T06:11:49.290Z,99637.94
2023-05-12T06:14:17.336Z,99636.97
2023-05-12T06:16:44.575Z,99636.59
2023-05-12T06:19:12.447Z,99636.56
2023-05-12T06:21:41.041Z,99637.06
2023-05-12T06:24:08.269Z,99640.84
2023-05-12T06:26:36.599Z,99639.13
2023-05-12T06:29:06.874Z,99639.66
2023-05-12T06:31:34.012Z,99636.28
2023-05-12T06:34:01.093Z,99641.97
2023-05-12T06:36:28.967Z,99635.09
2023-05-12T06:38:56.921Z,99638.06
2023-05-12T06:41:25.244Z,99635.25
2023-05-12T06:43:52.566Z,99627.75
2023-05-12T06:46:27.657Z,99627.06
2023-05-12T06:48:57.984Z,99638.78
2023-05-12T06:51:25.148Z,99633.72
2023-05-12T06:53:52.382Z,99633.63
2023-05-12T06:56:19.435Z,99626.34
2023-05-12T06:58:48.141Z,99633.91
2023-05-12T07:01:15.739Z,99630.78
2023-05-12T07:03:42.853Z,99631.69
2023-05-12T07:06:10.258Z,99627.22
2023-05-12T07:08:37.405Z,99629.00
2023-05-12T07:11:04.475Z,99632.97
2023-05-12T07:13:31.502Z,99629.31
2023-05-12T07:15:58.629Z,99631.16
2023-05-12T07:18:26.003Z,99634.31
2023-05-12T07:20:53.474Z,99625.69
2023-05-12T07:23:20.793Z,99631.06
2023-05-12T07:25:48.029Z,99626.59
2023-05-12T07:28:15.495Z,99620.50
2023-05-12T07:30:43.114Z,99624.03
2023-05-12T07:33:10.342Z,99626.28
2023-05-12T07:35:37.493Z,99623.66
2023-05-12T07:38:04.665Z,99626.38
2023-05-12T07:40:31.830Z,99625.13
2023-05-12T07:42:58.908Z,99624.25
2023-05-12T07:45:26.124Z,99618.94
2023-05-12T07:47:53.442Z,99620.75
2023-05-12T07:50:21.554Z,99623.41
2023-05-12T07:52:50.542Z,99622.34
2023-05-12T07:55:18.880Z,99626.00
2023-05-12T07:57:46.374Z,99609.31
2023-05-12T08:00:14.496Z,99614.28
2023-05-12T08:02:42.938Z,99615.97
2023-05-12T08:05:10.828Z,99618.78
2023-05-12T08:07:41.101Z,99621.25
2023-05-12T08:10:09.408Z,99610.66
2023-05-12T08:12:36.368Z,99614.28
2023-05-12T08:15:03.693Z,99609.94
2023-05-12T08:17:33.772Z,99607.06
2023-05-12T08:20:04.509Z,99605.00
2023-05-12T08:22:36.525Z,99590.97
2023-05-12T08:25:03.825Z,99595.22
2023-05-12T08:27:33.810Z,99607.53
2023-05-12T08:30:01.003Z,99589.59
2023-05-12T08:32:28.435Z,99582.66
2023-05-12T08:34:55.425Z,99589.16
2023-05-12T08:37:22.676Z,99596.63
2023-05-12T08:39:49.908Z,99595.84
2023-05-12T08:42:44.561Z,99589.75
2023-05-12T08:45:14.580Z,99593.31
2023-05-12T08:47:42.979Z,99586.69
2023-05-12T08:50:11.766Z,99582.34
2023-05-12T08:52:39.578Z,99582.38
2023-05-12T08:55:09.350Z,99594.56
2023-05-12T08:57:39.527Z,99573.94
2023-05-12T09:00:09.036Z,99579.44
2023-05-12T09:02:51.937Z,99580.41
2023-05-12T09:05:22.039Z,99577.84
2023-05-12T09:07:50.548Z,99561.81
2023-05-12T09:10:33.750Z,99555.16
2023-05-12T09:13:26.549Z,99561.63
2023-05-12T09:15:56.714Z,99562.56
2023-05-12T09:18:23.906Z,99557.38
2023-05-12T09:20:51.058Z,99581.25
2023-05-12T09:23:20.367Z,99562.94
2023-05-12T09:25:48.353Z,99575.91
2023-05-12T09:28:16.029Z,99568.16
2023-05-12T09:30:43.284Z,99555.66
2023-05-12T09:33:12.462Z,99560.16
2023-05-12T09:35:40.424Z,99546.31
2023-05-12T09:38:09.227Z,99551.56
2023-05-12T09:40:36.829Z,99551.44
2023-05-12T09:43:06.499Z,99553.50
2023-05-12T09:45:39.001Z,99551.50
2023-05-12T09:48:11.096Z,99546.13
2023-05-12T09:50:50.588Z,99544.03
2023-05-12T09:53:19.422Z,99541.47
2023-05-12T09:55:48.008Z,99551.03
2023-05-12T09:58:17.393Z,99549.28
2023-05-12T10:03:23.954Z,99539.97
2023-05-12T10:05:57.743Z,99542.44
2023-05-12T10:08:30.256Z,99540.22
2023-05-12T10:11:00.253Z,99537.63
2023-05-12T10:13:28.192Z,99539.63
2023-05-12T10:15:59.385Z,99536.63
2023-05-12T10:18:26.814Z,99538.25
2023-05-12T10:20:54.306Z,99540.69
2023-05-12T10:23:22.815Z,99539.94
2023-05-12T10:25:50.190Z,99530.41
2023-05-12T10:28:17.551Z,99531.69
2023-05-12T10:30:45.652Z,99545.66
2023-05-12T10:33:12.762Z,99532.66
2023-05-12T10:35:40.359Z,99534.59
2023-05-12T10:38:09.732Z,99535.00
2023-05-12T10:40:37.002Z,99527.78
2023-05-12T10:43:05.029Z,99526.69
2023-05-12T10:45:37.553Z,99539.84
2023-05-12T10:48:07.185Z,99534.13
2023-05-12T10:50:34.365Z,99541.00
2023-05-12T10:53:01.660Z,99535.13
2023-05-12T10:55:43.911Z,99548.56
2023-05-12T10:58:13.328Z,99540.81
2023-05-12T11:00:52.885Z,99541.00
2023-05-12T11:03:25.671Z,99536.28
2023-05-12T11:06:05.200Z,99528.50
2023-05-12T11:08:35.721Z,99538.53
2023-05-12T11:11:03.381Z,99545.19
2023-05-12T11:13:30.655Z,99530.28
2023-05-12T11:15:58.365Z,99540.88
2023-05-12T11:18:25.565Z,99534.28
2023-05-12T11:20:52.650Z,99531.66
2023-05-12T11:23:28.994Z,99542.38
2023-05-12T11:25:57.277Z,99533.75
2023-05-12T11:28:24.677Z,99535.94
2023-05-12T11:30:54.999Z,99543.00
2023-05-12T11:33:25.633Z,99539.41
2023-05-12T11:35:52.808Z,99520.19
2023-05-12T11:38:20.119Z,99520.19
2023-05-12T11:40:47.424Z,99517.72
2023-05-12T11:43:15.410Z,99515.47
2023-05-12T11:45:42.438Z,99508.19
2023-05-12T11:48:15.396Z,99512.06
2023-05-12T11:50:46.796Z,99523.63
2023-05-12T11:53:19.720Z,99515.69
2023-05-12T11:55:52.574Z,99521.34
2023-05-12T11:58:29.990Z,99514.16
2023-05-12T12:00:57.874Z,99507.41
2023-05-12T12:03:25.685Z,99505.09
2023-05-12T12:06:01.109Z,99531.81
2023-05-12T12:08:28.944Z,99514.91
2023-05-12T12:10:56.094Z,99498.88
2023-05-12T12:13:24.844Z,99511.88
2023-05-12T12:15:52.783Z,99495.50
2023-05-12T12:18:20.027Z,99490.41
2023-05-12T12:20:47.691Z,99490.03
2023-05-12T12:23:14.840Z,99488.31
2023-05-12T12:25:41.873Z,99490.44
2023-05-12T12:28:09.225Z,99487.75
2023-05-12T12:30:36.317Z,99482.97
2023-05-12T12:33:03.346Z,99476.69
2023-05-12T12:35:30.440Z,99469.97
2023-05-12T12:37:58.830Z,99484.16
2023-05-12T12:40:26.031Z,99478.78
2023-05-12T12:42:53.500Z,99490.66
2023-05-12T12:45:20.800Z,99480.22
2023-05-12T12:47:48.178Z,99487.34
2023-05-12T12:50:15.440Z,99488.22
2023-05-12T12:52:43.269Z,99478.25
2023-05-12T12:55:10.431Z,99465.50
2023-05-12T12:57:37.853Z,99465.38
2023-05-12T13:00:05.816Z,99472.22
2023-05-12T13:02:38.918Z,99471.44
2023-05-12T13:05:07.280Z,99471.88
2023-05-12T13:07:34.804Z,99475.31
2023-05-12T13:10:02.992Z,99460.25
2023-05-12T13:12:33.188Z,99461.63
2023-05-12T13:15:00.948Z,99463.84
2023-05-12T13:17:28.743Z,99462.91
2023-05-12T13:19:55.887Z,99460.56
2023-05-12T13:22:23.051Z,99465.31
2023-05-12T13:24:50.109Z,99456.63
2023-05-12T13:27:17.256Z,99451.91
2023-05-12T13:29:47.451Z,99445.63
2023-05-12T13:32:17.825Z,99451.03
2023-05-12T13:34:44.909Z,99436.69
2023-05-12T13:37:12.361Z,99438.75
2023-05-12T13:39:39.622Z,99447.84
2023-05-12T13:42:10.181Z,99444.19
2023-05-12T13:45:09.348Z,99446.41
2023-05-12T13:47:36.727Z,99437.25
2023-05-12T13:50:03.906Z,99445.34
2023-05-12T13:52:31.506Z,99444.16
2023-05-12T13:54:58.732Z,99437.25
2023-05-12T13:57:26.014Z,99450.28
2023-05-12T13:59:54.994Z,99449.75
2023-05-12T14:02:22.178Z,99434.09
2023-05-12T14:04:49.534Z,99441.66
2023-05-12T14:07:17.196Z,99418.59
2023-05-12T14:09:44.255Z,99430.59
2023-05-12T14:12:11.510Z,99420.69
2023-05-12T14:14:38.742Z,99429.59
2023-05-12T14:17:05.972Z,99419.16
2023-05-12T14:19:33.137Z,99425.31
2023-05-12T14:22:00.901Z,99435.06
2023-05-12T14:24:28.981Z,99421.16
2023-05-12T14:26:56.263Z,99425.94
2023-05-12T14:29:24.631Z,99422.31
2023-05-12T14:31:51.931Z,99423.63
2023-05-12T14:34:23.574Z,99430.59
2023-05-12T14:36:51.189Z,99432.19
2023-05-12T14:39:18.370Z,99423.00
2023-05-12T14:41:45.597Z,99418.88
2023-05-12T14:44:12.741Z,99419.88
2023-05-12T14:46:39.880Z,99423.44
2023-05-12T14:49:11.178Z,99425.44
2023-05-12T14:51:38.508Z,99436.75
2023-05-12T14:54:15.057Z,99434.88
2023-05-12T14:56:50.309Z,99430.16
2023-05-12T14:59:17.952Z,99434.88
2023-05-12T15:01:45.311Z,99418.84
2023-05-12T15:04:13.590Z,99427.09
2023-05-12T15:06:44.788Z,99444.47
2023-05-12T15:09:12.424Z,99414.75
2023-05-12T15:11:39.909Z,99420.69
2023-05-12T15:14:07.782Z,99421.34
2023-05-12T15:16:38.099Z,99411.53
2023-05-12T15:19:05.483Z,99404.38
2023-05-12T15:21:36.750Z,99415.63
2023-05-12T15:24:04.625Z,99415.69
2023-05-12T15:26:34.226Z,99412.88
2023-05-12T15:29:02.740Z,99415.28
2023-05-12T15:31:30.241Z,99418.13
2023-05-12T15:33:58.138Z,99406.16
2023-05-12T15:36:25.221Z,99417.34
2023-05-12T15:38:52.552Z,99423.34
2023-05-12T15:41:19.769Z,99407.34
2023-05-12T15:43:46.833Z,99402.56
2023-05-12T15:46:14.043Z,99401.75
2023-05-12T15:48:41.180Z,99412.91
2023-05-12T15:51:08.150Z,99409.19
2023-05-12T15:53:35.318Z,99403.94
2023-05-12T15:56:03.845Z,99404.84
2023-05-12T15:58:31.612Z,99405.63
2023-05-12T16:00:59.543Z,99407.50
2023-05-12T16:03:27.381Z,99402.59
2023-05-12T16:05:55.321Z,99406.13
2023-05-12T16:08:24.192Z,99413.03
2023-05-12T16:10:51.386Z,99405.94
2023-05-12T16:13:18.519Z,99402.88
2023-05-12T16:15:45.642Z,99418.16
2023-05-12T16:18:12.759Z,99408.19
2023-05-12T16:20:41.779Z,99413.63
2023-05-12T16:23:08.933Z,99410.72
2023-05-12T16:25:36.101Z,99403.03
2023-05-12T16:28:03.761Z,99406.84
2023-05-12T16:30:30.950Z,99404.13
2023-05-12T16:32:57.975Z,99403.66
2023-05-12T16:35:25.178Z,99414.50
2023-05-12T16:37:52.842Z,99415.09
2023-05-12T16:40:20.441Z,99417.75
2023-05-12T16:42:48.005Z,99416.81
2023-05-12T16:45:15.258Z,99413.28
2023-05-12T16:47:42.601Z,99415.75
2023-05-12T16:50:10.383Z,99416.75
2023-05-12T16:52:37.535Z,99423.06
2023-05-12T16:55:05.024Z,99422.94
2023-05-12T16:57:32.622Z,99426.66
2023-05-12T17:00:00.931Z,99426.78
2023-05-12T17:02:28.070Z,99431.56
2023-05-12T17:04:55.279Z,99432.84
2023-05-12T17:07:23.378Z,99434.09
2023-05-12T17:09:50.677Z,99434.81
2023-05-12T17:12:18.169Z,99430.94
2023-05-12T17:14:50.115Z,99438.94
2023-05-12T17:17:20.404Z,99441.09
2023-05-12T17:19:47.453Z,99435.94
2023-05-12T17:22:14.697Z,99438.13
2023-05-12T17:24:41.858Z,99437.69
2023-05-12T17:27:09.020Z,99447.88
2023-05-12T17:29:36.037Z,99443.03
2023-05-12T17:32:03.342Z,99447.72
2023-05-12T17:34:30.335Z,99451.09
2023-05-12T17:36:57.975Z,99450.78
2023-05-12T17:39:25.059Z,99448.13
2023-05-12T17:41:52.130Z,99453.41
2023-05-12T17:44:19.236Z,99449.63
2023-05-12T17:46:46.291Z,99455.25
2023-05-12T17:49:13.315Z,99449.22
2023-05-12T17:51:40.436Z,99458.25
2023-05-12T17:54:08.115Z,99457.72
2023-05-12T17:56:35.186Z,99457.47
2023-05-12T17:59:03.477Z,99455.00
2023-05-12T18:01:30.835Z,99459.28
2023-05-12T18:03:58.274Z,99458.91
2023-05-12T18:06:25.313Z,99458.84
2023-05-12T18:08:52.352Z,99452.97
2023-05-12T18:11:19.383Z,99461.34
2023-05-12T18:13:46.547Z,99460.97
2023-05-12T18:16:25.207Z,99458.31
2023-05-12T18:18:55.772Z,99464.75
2023-05-12T18:21:23.011Z,99462.63
2023-05-12T18:23:50.213Z,99466.28
2023-05-12T18:26:17.400Z,99468.34
2023-05-12T18:28:44.457Z,99463.06
2023-05-12T18:33:41.557Z,99474.41
2023-05-12T18:36:09.059Z,99465.25
2023-05-12T18:38:36.049Z,99471.84
2023-05-12T18:41:03.486Z,99469.41
2023-05-12T18:43:30.592Z,99479.16
2023-05-12T18:45:57.668Z,99473.56
2023-05-12T18:48:24.836Z,99472.34
2023-05-12T18:50:51.922Z,99467.47
2023-05-12T18:53:18.969Z,99477.44
2023-05-12T18:55:46.426Z,99470.94
2023-05-12T18:58:13.684Z,99471.03
2023-05-12T19:00:40.861Z,99468.66
2023-05-12T19:03:08.236Z,99464.09
2023-05-12T19:05:35.837Z,99469.97
2023-05-12T19:08:05.985Z,99471.19
2023-05-12T19:10:33.097Z,99466.13
2023-05-12T19:13:00.159Z,99471.66
2023-05-12T19:15:27.145Z,99467.38
2023-05-12T19:17:54.356Z,99466.34
2023-05-12T19:20:21.425Z,99476.25
2023-05-12T19:22:51.228Z,99474.94
2023-05-12T19:25:18.613Z,99467.94
2023-05-12T19:27:46.251Z,99461.19
2023-05-12T19:30:14.272Z,99466.03
2023-05-12T19:32:42.764Z,99469.97
2023-05-12T19:35:13.169Z,99463.81
2023-05-12T19:37:41.676Z,99468.19
2023-05-12T19:40:09.169Z,99475.06
2023-05-12T19:42:38.032Z,99470.41
2023-05-12T19:45:06.098Z,99474.47
2023-05-12T19:47:35.306Z,99467.88
2023-05-12T19:50:02.312Z,99472.28
2023-05-12T19:52:31.795Z,99469.81
2023-05-12T19:54:58.941Z,99475.34
2023-05-12T19:57:26.585Z,99468.34
2023-05-12T19:59:53.539Z,99471.22
2023-05-12T20:02:20.886Z,99460.19
2023-05-12T20:04:48.293Z,99471.28
2023-05-12T20:07:16.437Z,99465.16
2023-05-12T20:09:43.422Z,99463.31
2023-05-12T20:12:10.451Z,99469.44
2023-05-12T20:14:38.530Z,99464.31
2023-05-12T20:17:07.656Z,99464.34
2023-05-12T20:19:35.753Z,99466.34
2023-05-12T20:22:02.933Z,99463.09
2023-05-12T20:24:30.105Z,99460.41
2023-05-12T20:26:57.064Z,99462.63
2023-05-12T20:29:26.007Z,99465.94
2023-05-12T20:31:53.255Z,99475.00
2023-05-12T20:34:45.893Z,99472.56
2023-05-12T20:37:16.017Z,99474.00
2023-05-12T20:39:43.075Z,99471.03
2023-05-12T20:42:10.270Z,99469.13
2023-05-12T20:44:37.437Z,99458.25
2023-05-12T20:47:04.736Z,99468.00
2023-05-12T20:49:31.811Z,99474.56
2023-05-12T20:51:59.248Z,99470.22
2023-05-12T20:54:26.464Z,99476.25
2023-05-12T20:56:53.516Z,99479.88
2023-05-12T20:59:24.578Z,99478.22
2023-05-12T21:01:51.646Z,99478.81
2023-05-12T21:04:18.924Z,99478.28
2023-05-12T21:06:46.936Z,99474.81
2023-05-12T21:09:14.141Z,99476.13
2023-05-12T21:11:41.670Z,99474.50
2023-05-12T21:14:08.833Z,99475.09
2023-05-12T21:16:36.042Z,99472.63
2023-05-12T21:19:03.229Z,99477.25
2023-05-12T21:21:30.206Z,99475.34
2023-05-12T21:23:57.226Z,99475.41
2023-05-12T21:26:26.171Z,99470.00
2023-05-12T21:28:53.221Z,99477.69
2023-05-12T21:31:20.264Z,99477.22
2023-05-12T21:33:48.182Z,99479.44
2023-05-12T21:36:15.169Z,99476.72
2023-05-12T21:38:42.344Z,99470.75
2023-05-12T21:41:09.360Z,99479.75
2023-05-12T21:43:36.445Z,99489.56
2023-05-12T21:46:04.709Z,99483.81
2023-05-12T21:48:32.278Z,99483.00
2023-05-12T21:51:00.881Z,99480.25
2023-05-12T21:53:29.209Z,99478.94
2023-05-12T21:55:56.379Z,99472.66
2023-05-12T21:58:23.892Z,99482.22
2023-05-12T22:00:51.815Z,99482.50
2023-05-12T22:03:20.579Z,99474.09
2023-05-12T22:05:47.891Z,99473.28
2023-05-12T22:08:14.937Z,99476.56
2023-05-12T22:10:42.635Z,99473.06
2023-05-12T22:13:09.869Z,99473.59
2023-05-12T22:15:36.970Z,99467.91
2023-05-12T22:18:04.117Z,99469.88
2023-05-12T22:20:31.472Z,99484.06
2023-05-12T22:22:58.693Z,99478.38
2023-05-12T22:25:26.126Z,99473.75
2023-05-12T22:27:53.258Z,99472.97
2023-05-12T22:30:20.650Z,99483.59
2023-05-12T22:32:48.005Z,99476.56
2023-05-12T22:35:15.354Z,99481.25
2023-05-12T22:37:42.406Z,99483.72
2023-05-12T22:40:09.930Z,99493.03
2023-05-12T22:42:36.884Z,99479.16
2023-05-12T22:45:04.939Z,99477.84
2023-05-12T22:47:33.043Z,99482.75
2023-05-12T22:50:00.938Z,99487.94
2023-05-12T22:52:29.356Z,99478.97
2023-05-12T22:54:56.531Z,99475.16
2023-05-12T22:57:23.629Z,99481.72
2023-05-12T22:59:51.251Z,99481.69
2023-05-12T23:02:18.387Z,99487.97
2023-05-12T23:04:45.687Z,99481.72
2023-05-12T23:07:12.897Z,99479.84
2023-05-12T23:09:40.372Z,99480.38
2023-05-12T23:12:07.775Z,99480.94
2023-05-12T23:14:34.805Z,99487.50
2023-05-12T23:17:02.122Z,99488.59
2023-05-12T23:19:29.307Z,99483.41
2023-05-12T23:21:56.283Z,99480.97
2023-05-12T23:24:23.398Z,99487.22
2023-05-12T23:26:51.052Z,99488.06
2023-05-12T23:29:18.190Z,99488.59
2023-05-12T23:31:45.305Z,99485.63
2023-05-12T23:34:12.536Z,99486.41
2023-05-12T23:36:39.578Z,99480.16
2023-05-12T23:39:06.652Z,99478.53
2023-05-12T23:41:36.345Z,99487.22
2023-05-12T23:44:03.900Z,99480.16
2023-05-12T23:46:31.003Z,99482.34
2023-05-12T23:48:58.120Z,99485.84
2023-05-12T23:51:26.028Z,99479.84
2023-05-12T23:53:53.124Z,99477.69
2023-05-12T23:56:20.174Z,99482.28
2023-05-12T23:58:47.735Z,99481.22
